Time;durP1;ratioP1;P1;durP2;ratioP2;P2;SDS_P1;SDS_P2;PMS_P1;PMS_P2;Temp;Humidity;BMP_temperature;BMP_pressure;BME280_temperature;BME280_humidity;BME280_pressure;Samples;Min_cycle;Max_cycle;Signal;HPM_P1;HPM_P2
2023/10/19 00:01:00;;;;;;;29.23;16.47;;;4.50;99.90;;;;;;4783530;29;20221;-86
2023/10/19 00:03:44;;;;;;;30.33;17.93;;;4.50;99.90;;;;;;4783534;29;20262;-75
2023/10/19 00:06:11;;;;;;;34.90;18.13;;;4.60;99.90;;;;;;4785633;29;20268;-74
2023/10/19 00:08:42;;;;;;;36.97;18.43;;;4.50;99.90;;;;;;4786759;30;20243;-76
2023/10/19 00:11:20;;;;;;;36.67;18.37;;;4.50;99.90;;;;;;4787460;30;20681;-75
2023/10/19 00:13:54;;;;;;;31.80;17.30;;;4.50;99.90;;;;;;4786320;30;20293;-75
2023/10/19 00:16:23;;;;;;;33.27;17.00;;;4.70;99.90;;;;;;4786887;30;20216;-75
2023/10/19 00:18:52;;;;;;;30.80;16.83;;;4.40;99.90;;;;;;4786311;29;20234;-75
2023/10/19 00:21:21;;;;;;;31.50;17.47;;;4.40;99.90;;;;;;4787183;30;20212;-75
2023/10/19 00:23:51;;;;;;;30.97;18.13;;;4.30;99.90;;;;;;4786308;30;20214;-75
2023/10/19 00:26:19;;;;;;;34.90;18.80;;;4.50;99.90;;;;;;4786800;30;20246;-76
2023/10/19 00:28:55;;;;;;;33.97;19.33;;;4.30;99.90;;;;;;4786512;30;20212;-75
2023/10/19 00:31:24;;;;;;;33.80;19.03;;;4.50;99.90;;;;;;4786089;30;20221;-75
2023/10/19 00:33:57;;;;;;;37.50;20.17;;;4.30;99.90;;;;;;4786406;29;20232;-76
2023/10/19 00:36:26;;;;;;;33.63;19.30;;;4.20;99.90;;;;;;4787018;30;20228;-76
2023/10/19 00:38:54;;;;;;;33.30;19.27;;;4.20;99.90;;;;;;4838512;29;20214;-75
2023/10/19 00:43:57;;;;;;;35.90;19.83;;;4.00;99.90;;;;;;4843389;29;20216;-76
2023/10/19 00:46:32;;;;;;;35.47;20.30;;;4.10;99.90;;;;;;4843471;29;20219;-76
2023/10/19 00:49:01;;;;;;;38.23;20.43;;;4.10;99.90;;;;;;4843160;29;20734;-76
2023/10/19 00:52:12;;;;;;;35.17;19.57;;;4.20;99.90;;;;;;4842854;29;20260;-76
2023/10/19 00:54:42;;;;;;;35.73;19.67;;;3.80;99.90;;;;;;4843477;29;20202;-76
2023/10/19 00:57:11;;;;;;;36.53;20.87;;;3.90;99.90;;;;;;4842929;29;20203;-76
2023/10/19 00:59:47;;;;;;;37.20;19.17;;;4.10;99.90;;;;;;4843377;29;20213;-76
2023/10/19 01:02:17;;;;;;;36.70;20.10;;;4.00;99.90;;;;;;4842090;29;20624;-75
2023/10/19 01:04:50;;;;;;;35.00;19.57;;;3.80;99.90;;;;;;4842839;29;20217;-76
2023/10/19 01:07:22;;;;;;;36.10;19.73;;;3.80;99.90;;;;;;4842752;29;20319;-75
2023/10/19 01:09:53;;;;;;;40.73;20.50;;;3.70;99.90;;;;;;4841640;29;20673;-73
2023/10/19 01:17:44;;;;;;;42.57;22.70;;;3.80;99.90;;;;;;4841352;29;20228;-76
2023/10/19 01:20:20;;;;;;;42.77;23.40;;;4.00;99.90;;;;;;4841937;29;20219;-76
2023/10/19 01:34:05;;;;;;;50.93;26.20;;;3.70;99.90;;;;;;4842541;29;20224;-77
2023/10/19 01:36:42;;;;;;;50.03;25.40;;;3.60;99.90;;;;;;4840435;29;20281;-75
2023/10/19 01:39:11;;;;;;;54.90;26.30;;;3.40;99.90;;;;;;4842162;29;20212;-75
2023/10/19 01:41:41;;;;;;;56.30;27.80;;;3.70;99.90;;;;;;4842254;29;20206;-75
2023/10/19 01:44:13;;;;;;;54.63;26.43;;;3.50;99.90;;;;;;4842535;29;20206;-76
2023/10/19 01:46:43;;;;;;;54.63;26.50;;;3.50;99.90;;;;;;4842093;29;20741;-75
2023/10/19 01:49:11;;;;;;;58.43;29.03;;;3.40;99.90;;;;;;4841582;29;20245;-77
2023/10/19 01:51:39;;;;;;;57.50;28.17;;;3.50;99.90;;;;;;4841369;29;20201;-77
2023/10/19 01:54:07;;;;;;;54.00;26.50;;;3.40;99.90;;;;;;4842836;29;20658;-77
2023/10/19 01:56:35;;;;;;;60.43;29.57;;;3.10;99.90;;;;;;4841553;29;20207;-74
2023/10/19 01:59:04;;;;;;;52.57;27.80;;;3.40;99.90;;;;;;4841269;29;20206;-77
2023/10/19 02:01:32;;;;;;;54.80;28.23;;;3.20;99.90;;;;;;4841569;29;20260;-77
2023/10/19 02:04:03;;;;;;;54.70;28.30;;;3.30;99.90;;;;;;4842364;29;20307;-76
2023/10/19 02:06:39;;;;;;;53.63;28.37;;;3.10;99.90;;;;;;4841499;29;20287;-78
2023/10/19 02:11:47;;;;;;;50.90;27.03;;;2.90;99.90;;;;;;4842229;29;20203;-75
2023/10/19 02:14:18;;;;;;;55.37;27.97;;;2.90;99.90;;;;;;4842226;29;20294;-75
2023/10/19 02:16:50;;;;;;;52.97;26.40;;;3.10;99.90;;;;;;4842432;29;20655;-76
2023/10/19 02:19:22;;;;;;;51.80;27.43;;;2.90;99.90;;;;;;4841807;29;20583;-75
2023/10/19 02:21:53;;;;;;;51.33;26.43;;;2.90;99.90;;;;;;4842159;29;20654;-77
2023/10/19 02:24:20;;;;;;;53.63;26.87;;;2.80;99.90;;;;;;4841651;29;20206;-77
2023/10/19 02:26:54;;;;;;;52.60;27.33;;;2.80;99.90;;;;;;4841381;29;20248;-77
2023/10/19 02:29:22;;;;;;;50.37;26.50;;;2.80;99.90;;;;;;4841334;29;20206;-77
2023/10/19 02:31:49;;;;;;;52.43;27.10;;;2.70;99.90;;;;;;4841020;29;20607;-75
2023/10/19 02:34:17;;;;;;;54.83;27.90;;;3.00;99.90;;;;;;4840946;29;20234;-75
2023/10/19 02:36:45;;;;;;;52.03;27.10;;;2.80;99.90;;;;;;4841787;29;20240;-75
2023/10/19 02:39:14;;;;;;;54.57;27.83;;;3.10;99.90;;;;;;4841539;29;20251;-76
2023/10/19 02:41:50;;;;;;;53.80;27.90;;;2.80;99.90;;;;;;4841166;29;20233;-76
2023/10/19 02:44:21;;;;;;;55.87;27.57;;;2.80;99.90;;;;;;4840456;29;20206;-77
2023/10/19 02:46:58;;;;;;;55.17;28.87;;;2.70;99.90;;;;;;4841641;29;20642;-76
2023/10/19 02:49:26;;;;;;;54.90;27.47;;;2.80;99.90;;;;;;4840612;29;20198;-77
2023/10/19 02:51:54;;;;;;;52.83;28.30;;;2.60;99.90;;;;;;4841075;29;20206;-75
2023/10/19 02:54:24;;;;;;;53.53;28.17;;;2.70;99.90;;;;;;4840030;29;20242;-76
2023/10/19 02:56:58;;;;;;;55.43;28.33;;;2.40;99.90;;;;;;4840521;29;20226;-75
2023/10/19 02:59:28;;;;;;;53.03;27.30;;;2.30;99.90;;;;;;4840538;29;20278;-76
2023/10/19 03:04:41;;;;;;;55.30;28.43;;;2.50;99.90;;;;;;4841229;29;20734;-77
2023/10/19 03:07:12;;;;;;;54.30;28.17;;;2.60;99.90;;;;;;4840040;29;20304;-76
2023/10/19 03:09:48;;;;;;;57.43;29.00;;;2.40;99.90;;;;;;4840362;29;20199;-77
2023/10/19 03:12:18;;;;;;;53.33;28.23;;;2.60;99.90;;;;;;4840473;29;20182;-75
2023/10/19 03:14:49;;;;;;;52.77;27.40;;;2.30;99.90;;;;;;4840891;29;20258;-75
2023/10/19 03:17:18;;;;;;;55.93;29.20;;;2.60;99.90;;;;;;4841991;29;20210;-77
2023/10/19 03:19:46;;;;;;;58.23;28.93;;;2.30;99.90;;;;;;4840733;29;20277;-78
2023/10/19 03:22:14;;;;;;;54.50;28.33;;;2.30;99.90;;;;;;4840385;29;20202;-76
2023/10/19 03:24:43;;;;;;;54.57;28.83;;;2.30;99.90;;;;;;4840960;29;20206;-77
2023/10/19 03:27:16;;;;;;;56.70;29.10;;;2.50;99.90;;;;;;4839973;29;20238;-76
2023/10/19 03:29:53;;;;;;;55.53;28.03;;;2.60;99.90;;;;;;4840850;29;20254;-76
2023/10/19 03:32:26;;;;;;;57.73;29.43;;;2.30;99.90;;;;;;4839329;29;20583;-77
2023/10/19 03:34:59;;;;;;;55.87;28.27;;;2.20;99.90;;;;;;4839613;29;20206;-75
2023/10/19 03:37:30;;;;;;;57.27;29.33;;;2.30;99.90;;;;;;4838508;29;20623;-76
2023/10/19 03:39:58;;;;;;;58.93;29.67;;;2.30;99.90;;;;;;4839546;29;20607;-76
2023/10/19 03:42:31;;;;;;;59.00;29.70;;;2.50;99.90;;;;;;4839569;29;20202;-76
2023/10/19 03:45:02;;;;;;;58.33;29.43;;;2.30;99.90;;;;;;4840737;29;20205;-78
2023/10/19 03:47:35;;;;;;;57.00;29.70;;;2.50;99.90;;;;;;4839983;29;20286;-77
2023/10/19 03:50:07;;;;;;;55.37;29.80;;;2.30;99.90;;;;;;4839755;29;20535;-76
2023/10/19 03:52:38;;;;;;;56.30;30.03;;;2.30;99.90;;;;;;4840309;29;20202;-77
2023/10/19 03:55:11;;;;;;;55.13;29.47;;;2.20;99.90;;;;;;4840390;29;20239;-77
2023/10/19 03:57:46;;;;;;;55.20;29.27;;;2.20;99.90;;;;;;4840406;29;20206;-77
2023/10/19 04:00:19;;;;;;;52.90;28.67;;;2.30;99.90;;;;;;4840655;29;20202;-77
2023/10/19 04:02:46;;;;;;;57.83;29.57;;;2.40;99.90;;;;;;4839392;29;20588;-77
2023/10/19 04:05:20;;;;;;;60.93;29.83;;;2.40;99.90;;;;;;4822867;29;20254;-76
2023/10/19 04:07:51;;;;;;;54.13;29.33;;;2.50;99.90;;;;;;4839959;29;20241;-77
2023/10/19 04:13:10;;;;;;;59.43;30.33;;;2.70;99.90;;;;;;4818755;29;20227;-77
2023/10/19 04:15:41;;;;;;;60.07;31.93;;;2.50;99.90;;;;;;4819381;29;20210;-76
2023/10/19 04:18:09;;;;;;;58.97;32.93;;;2.40;99.90;;;;;;4819040;29;20340;-77
2023/10/19 04:23:20;;;;;;;65.53;33.97;;;2.60;99.90;;;;;;4819309;29;20397;-75
2023/10/19 04:25:49;;;;;;;66.80;35.37;;;2.50;99.90;;;;;;4819133;29;20211;-76
2023/10/19 04:28:30;;;;;;;62.93;32.27;;;2.30;99.90;;;;;;4818897;29;20614;-77
2023/10/19 04:31:02;;;;;;;63.30;34.00;;;2.20;99.90;;;;;;4818116;29;20287;-77
2023/10/19 04:33:31;;;;;;;62.03;33.73;;;2.20;99.90;;;;;;4819273;29;20226;-77
2023/10/19 04:36:00;;;;;;;64.50;34.37;;;2.20;99.90;;;;;;4818648;29;20236;-77
2023/10/19 04:38:30;;;;;;;68.07;33.80;;;2.40;99.90;;;;;;4818583;29;20210;-76
2023/10/19 04:41:24;;;;;;;68.13;32.90;;;2.70;99.90;;;;;;4818345;29;20219;-77
2023/10/19 04:43:52;;;;;;;66.07;33.40;;;2.60;99.90;;;;;;4817415;29;20563;-77
2023/10/19 04:46:20;;;;;;;70.27;34.47;;;2.70;99.90;;;;;;4818914;29;20711;-78
2023/10/19 04:48:49;;;;;;;72.47;33.97;;;2.90;99.90;;;;;;4819045;29;20289;-76
2023/10/19 04:51:17;;;;;;;74.53;34.63;;;3.00;99.90;;;;;;4823151;29;20676;-75
2023/10/19 04:53:45;;;;;;;67.17;33.50;;;2.70;99.90;;;;;;4827214;29;20538;-78
2023/10/19 04:56:14;;;;;;;63.07;33.70;;;2.70;99.90;;;;;;4826679;29;20220;-78
2023/10/19 04:58:42;;;;;;;62.23;33.57;;;2.70;99.90;;;;;;4842427;29;20217;-77
2023/10/19 05:01:11;;;;;;;69.63;35.03;;;3.00;99.90;;;;;;4842217;29;20630;-77
2023/10/19 05:03:39;;;;;;;64.73;33.43;;;2.80;99.90;;;;;;4843233;29;20305;-77
2023/10/19 05:06:09;;;;;;;62.67;32.87;;;3.10;99.90;;;;;;4825859;29;20416;-76
2023/10/19 05:08:38;;;;;;;64.53;33.93;;;2.80;99.90;;;;;;4842272;29;20371;-77
2023/10/19 05:11:05;;;;;;;61.10;33.17;;;2.80;99.90;;;;;;4842777;29;20281;-76
2023/10/19 05:13:33;;;;;;;58.47;33.13;;;3.10;99.90;;;;;;4842488;29;20262;-76
2023/10/19 05:16:01;;;;;;;61.77;33.03;;;2.80;99.90;;;;;;4843334;29;20213;-77
2023/10/19 05:18:29;;;;;;;55.77;32.20;;;3.10;99.90;;;;;;4842057;29;20240;-77
2023/10/19 05:20:57;;;;;;;58.73;31.87;;;2.90;99.90;;;;;;4842534;29;20205;-76
2023/10/19 05:23:25;;;;;;;57.60;32.03;;;2.80;99.90;;;;;;4842341;29;20203;-76
2023/10/19 05:26:06;;;;;;;58.13;31.97;;;2.90;99.90;;;;;;4825150;29;20311;-76
2023/10/19 05:28:34;;;;;;;54.23;30.63;;;2.90;99.90;;;;;;4842727;29;20230;-75
2023/10/19 05:31:04;;;;;;;58.30;30.70;;;2.90;99.90;;;;;;4841935;29;20206;-74
2023/10/19 05:33:32;;;;;;;55.73;30.17;;;2.90;99.90;;;;;;4842875;29;20275;-76
2023/10/19 05:36:01;;;;;;;57.37;29.93;;;2.90;99.90;;;;;;4843016;29;20222;-75
2023/10/19 05:38:28;;;;;;;52.73;27.03;;;3.00;99.90;;;;;;4842072;29;20235;-78
2023/10/19 05:40:57;;;;;;;50.50;27.67;;;3.00;99.90;;;;;;4841455;29;20602;-77
2023/10/19 05:43:25;;;;;;;55.47;28.13;;;3.00;99.90;;;;;;4841056;29;20719;-77
2023/10/19 05:45:52;;;;;;;44.63;27.57;;;3.20;99.90;;;;;;4842559;29;20286;-77
2023/10/19 05:48:23;;;;;;;50.97;27.60;;;3.40;99.90;;;;;;4841934;29;20238;-77
2023/10/19 05:50:52;;;;;;;49.30;28.00;;;3.10;99.90;;;;;;4842251;29;20316;-86
2023/10/19 05:53:22;;;;;;;49.00;25.60;;;3.20;99.90;;;;;;4841157;29;20207;-75
2023/10/19 05:55:50;;;;;;;47.80;26.77;;;3.30;99.90;;;;;;4842105;29;20225;-75
2023/10/19 05:58:18;;;;;;;47.90;26.47;;;3.40;99.90;;;;;;4841655;29;20202;-75
2023/10/19 06:00:46;;;;;;;48.63;24.97;;;3.60;99.90;;;;;;4825025;29;20295;-75
2023/10/19 06:03:14;;;;;;;50.77;25.20;;;3.50;99.90;;;;;;4840578;29;20313;-77
2023/10/19 06:05:43;;;;;;;45.67;24.47;;;3.60;99.90;;;;;;4840176;29;20211;-79
2023/10/19 06:08:11;;;;;;;41.47;23.30;;;3.30;99.90;;;;;;4841416;29;20235;-76
2023/10/19 06:10:39;;;;;;;45.77;23.53;;;3.60;99.90;;;;;;4840717;29;20214;-78
2023/10/19 06:13:09;;;;;;;43.93;24.10;;;3.70;99.90;;;;;;4841283;29;20199;-76
2023/10/19 06:15:37;;;;;;;45.73;23.70;;;3.50;99.90;;;;;;4841003;29;20298;-76
2023/10/19 06:18:05;;;;;;;43.57;23.43;;;3.70;99.90;;;;;;4841222;29;20214;-78
2023/10/19 06:20:33;;;;;;;43.80;23.47;;;3.80;99.90;;;;;;4840411;29;20204;-77
2023/10/19 06:23:06;;;;;;;44.23;22.97;;;3.50;99.90;;;;;;4840663;29;20204;-77
2023/10/19 06:25:36;;;;;;;42.33;23.27;;;3.90;99.90;;;;;;4840402;29;20203;-78
2023/10/19 06:28:04;;;;;;;42.47;21.33;;;3.60;99.90;;;;;;4841825;29;20226;-78
2023/10/19 06:30:39;;;;;;;41.93;22.23;;;3.70;99.90;;;;;;4842099;29;20296;-81
2023/10/19 06:33:34;;;;;;;42.20;22.57;;;3.80;99.90;;;;;;4840441;29;20230;-78
2023/10/19 06:36:04;;;;;;;43.73;22.27;;;3.80;99.90;;;;;;4824602;29;20561;-78
2023/10/19 06:38:34;;;;;;;44.70;22.93;;;3.90;99.90;;;;;;4839497;29;20214;-80
2023/10/19 06:41:14;;;;;;;47.10;22.63;;;3.90;99.90;;;;;;4825644;29;20263;-79
2023/10/19 06:43:49;;;;;;;40.93;22.03;;;4.20;99.90;;;;;;4842228;29;20645;-82
2023/10/19 06:46:17;;;;;;;46.63;22.80;;;4.10;99.90;;;;;;4825780;29;20648;-81
2023/10/19 06:48:55;;;;;;;45.43;22.97;;;4.40;99.90;;;;;;4825558;29;20247;-83
2023/10/19 06:51:26;;;;;;;42.33;22.90;;;4.30;99.90;;;;;;4822641;29;20582;-78
2023/10/19 06:54:01;;;;;;;43.30;23.33;;;4.40;99.90;;;;;;4840322;29;20215;-80
2023/10/19 06:56:39;;;;;;;48.03;23.87;;;4.20;99.90;;;;;;4841135;29;20278;-81
2023/10/19 06:59:24;;;;;;;46.40;24.07;;;4.50;99.90;;;;;;4825091;29;20208;-82
2023/10/19 07:01:55;;;;;;;44.27;24.87;;;4.20;99.90;;;;;;4841826;29;20256;-79
2023/10/19 07:04:51;;;;;;;43.40;23.97;;;4.40;99.90;;;;;;4839990;29;20536;-82
2023/10/19 07:07:23;;;;;;;43.73;23.40;;;4.50;99.90;;;;;;4824609;29;20218;-81
2023/10/19 07:10:39;;;;;;;46.33;24.23;;;4.40;99.90;;;;;;4815877;29;20206;-86
2023/10/19 07:30:15;;;;;;;43.00;23.83;;;4.80;99.90;;;;;;5358359;23;20247;-77
2023/10/19 07:32:54;;;;;;;44.80;24.10;;;4.90;99.90;;;;;;4851763;29;20225;-78
2023/10/19 07:35:43;;;;;;;46.97;25.00;;;5.10;99.90;;;;;;4839828;29;20272;-77
2023/10/19 07:38:22;;;;;;;54.57;24.77;;;5.50;99.90;;;;;;4839479;29;20270;-78
2023/10/19 07:40:58;;;;;;;47.17;24.23;;;5.70;99.90;;;;;;4840813;29;20852;-83
2023/10/19 07:43:30;;;;;;;47.80;23.67;;;5.90;99.90;;;;;;4834859;29;20198;-79
2023/10/19 07:46:09;;;;;;;44.73;22.50;;;5.80;99.90;;;;;;4840143;29;20309;-79
2023/10/19 07:48:40;;;;;;;43.07;22.03;;;6.20;99.90;;;;;;4824942;29;20241;-79
2023/10/19 07:51:21;;;;;;;41.87;22.67;;;6.50;99.90;;;;;;4842827;29;20192;-85
2023/10/19 07:53:53;;;;;;;38.97;21.93;;;6.80;99.90;;;;;;4829224;29;20534;-83
2023/10/19 07:56:25;;;;;;;42.93;23.73;;;7.00;99.90;;;;;;4809706;29;20232;-84
2023/10/19 07:58:52;;;;;;;41.90;21.93;;;7.30;99.90;;;;;;4824234;29;20642;-78
2023/10/19 08:01:28;;;;;;;52.50;23.40;;;7.70;99.90;;;;;;4841142;29;20238;-84
2023/10/19 08:04:05;;;;;;;46.83;22.47;;;7.70;99.90;;;;;;4826071;29;20689;-84
2023/10/19 08:06:33;;;;;;;44.30;21.53;;;7.80;99.90;;;;;;4840158;29;20227;-76
2023/10/19 08:09:04;;;;;;;42.20;21.90;;;7.80;99.90;;;;;;4823056;29;20543;-82
2023/10/19 08:11:33;;;;;;;39.63;21.60;;;7.70;99.90;;;;;;4840256;29;20665;-76
2023/10/19 08:14:02;;;;;;;40.33;21.50;;;7.80;99.90;;;;;;4839920;29;20208;-76
2023/10/19 08:16:36;;;;;;;39.87;20.37;;;7.80;99.90;;;;;;4839166;29;20208;-76
2023/10/19 08:19:12;;;;;;;39.93;21.07;;;7.90;99.90;;;;;;4839227;29;20258;-80
2023/10/19 08:21:48;;;;;;;41.53;21.43;;;8.00;99.90;;;;;;4841654;29;20237;-82
2023/10/19 08:24:20;;;;;;;37.63;20.13;;;8.10;99.90;;;;;;4823740;29;20674;-82
2023/10/19 08:27:00;;;;;;;40.30;20.43;;;8.10;99.90;;;;;;4841305;29;20305;-81
2023/10/19 08:29:35;;;;;;;37.97;19.70;;;8.20;99.90;;;;;;4825428;29;20285;-78
2023/10/19 08:32:03;;;;;;;36.97;19.13;;;8.50;99.90;;;;;;4827126;29;20213;-76
2023/10/19 08:34:41;;;;;;;40.77;20.23;;;8.60;99.90;;;;;;4843852;29;20224;-83
2023/10/19 08:37:11;;;;;;;37.20;18.87;;;8.70;99.90;;;;;;4843029;29;20203;-83
2023/10/19 08:39:43;;;;;;;31.60;17.93;;;9.10;99.90;;;;;;4842846;29;20206;-82
2023/10/19 08:42:13;;;;;;;34.00;18.40;;;9.10;99.90;;;;;;4826156;29;20354;-82
2023/10/19 08:44:41;;;;;;;31.20;17.23;;;9.10;99.90;;;;;;4827152;29;20194;-82
2023/10/19 08:47:12;;;;;;;29.47;17.20;;;9.50;99.90;;;;;;4843056;29;20289;-77
2023/10/19 08:49:41;;;;;;;31.50;16.73;;;9.30;99.90;;;;;;4843476;29;20229;-76
2023/10/19 08:52:13;;;;;;;29.67;16.27;;;9.40;99.90;;;;;;4842990;29;20209;-77
2023/10/19 08:54:50;;;;;;;28.20;16.63;;;9.60;99.90;;;;;;4842537;29;20216;-77
2023/10/19 08:57:23;;;;;;;33.77;16.80;;;9.70;99.90;;;;;;4842051;29;20202;-75
2023/10/19 08:59:58;;;;;;;27.10;14.93;;;10.30;99.90;;;;;;4843119;29;20618;-81
2023/10/19 09:02:27;;;;;;;26.33;15.73;;;10.20;99.90;;;;;;4842180;29;20654;-75
2023/10/19 09:05:07;;;;;;;28.43;15.47;;;10.50;99.90;;;;;;4843211;29;20194;-77
2023/10/19 09:07:41;;;;;;;26.17;15.10;;;10.40;99.90;;;;;;4842228;29;20240;-83
2023/10/19 09:10:22;;;;;;;26.43;13.93;;;10.60;99.90;;;;;;4825695;29;20210;-79
2023/10/19 09:13:15;;;;;;;21.63;12.67;;;10.60;99.90;;;;;;4826942;29;20198;-79
2023/10/19 09:15:53;;;;;;;40.13;12.63;;;10.70;99.90;;;;;;4811883;29;20561;-79
2023/10/19 09:18:35;;;;;;;18.03;10.60;;;10.80;99.90;;;;;;4827347;29;20224;-77
2023/10/19 09:21:23;;;;;;;17.30;10.57;;;11.00;99.90;;;;;;4828511;29;20233;-78
2023/10/19 09:23:55;;;;;;;16.57;9.37;;;10.90;99.90;;;;;;4826940;29;20285;-82
2023/10/19 09:26:27;;;;;;;19.03;10.13;;;11.00;99.90;;;;;;4843313;29;20210;-76
2023/10/19 09:28:59;;;;;;;19.73;9.77;;;11.00;99.90;;;;;;4842986;29;20298;-78
2023/10/19 09:31:31;;;;;;;18.00;9.80;;;11.10;99.90;;;;;;4840308;29;20754;-78
2023/10/19 09:34:11;;;;;;;17.23;10.30;;;11.20;99.90;;;;;;4842536;29;20228;-78
2023/10/19 09:36:47;;;;;;;16.63;9.83;;;11.40;99.90;;;;;;4841144;29;20301;-79
2023/10/19 09:39:16;;;;;;;19.43;9.90;;;11.50;99.90;;;;;;4825720;29;20206;-77
2023/10/19 09:41:47;;;;;;;17.53;9.53;;;11.60;99.90;;;;;;4841455;29;20730;-80
2023/10/19 09:44:31;;;;;;;16.83;9.17;;;11.90;99.90;;;;;;4827471;29;20205;-80
2023/10/19 09:47:10;;;;;;;14.63;9.17;;;11.90;99.90;;;;;;4842141;29;20205;-79
2023/10/19 09:49:52;;;;;;;16.20;9.33;;;12.00;99.90;;;;;;4841326;29;20325;-80
2023/10/19 09:52:28;;;;;;;16.70;9.93;;;12.00;99.90;;;;;;4842941;29;20281;-79
2023/10/19 09:55:29;;;;;;;15.97;9.67;;;12.10;99.90;;;;;;4842955;29;20209;-79
2023/10/19 09:58:07;;;;;;;17.70;9.80;;;12.00;99.90;;;;;;4842208;29;20258;-79
2023/10/19 10:00:35;;;;;;;16.50;9.50;;;11.90;99.90;;;;;;4842334;29;20201;-79
2023/10/19 10:03:49;;;;;;;18.40;10.20;;;12.00;99.90;;;;;;4840817;29;20237;-81
2023/10/19 10:06:47;;;;;;;18.73;9.50;;;12.50;99.90;;;;;;4841943;29;20199;-81
2023/10/19 10:09:25;;;;;;;14.97;9.47;;;13.00;99.90;;;;;;4841596;29;20225;-79
2023/10/19 10:12:16;;;;;;;16.50;9.80;;;12.90;99.90;;;;;;4841126;29;20766;-80
2023/10/19 10:15:02;;;;;;;15.47;9.17;;;12.80;99.90;;;;;;4841162;29;20202;-79
2023/10/19 10:18:01;;;;;;;14.47;8.83;;;12.70;99.90;;;;;;4837456;29;20238;-78
2023/10/19 10:20:29;;;;;;;17.87;10.00;;;12.50;99.90;;;;;;4842116;29;20201;-79
2023/10/19 10:23:21;;;;;;;16.40;9.17;;;12.40;99.90;;;;;;4840707;29;20548;-80
2023/10/19 10:25:55;;;;;;;16.47;8.60;;;12.00;99.90;;;;;;4840848;29;20210;-80
2023/10/19 10:28:23;;;;;;;17.70;9.27;;;12.20;99.90;;;;;;4826028;29;20221;-78
2023/10/19 10:31:14;;;;;;;18.67;9.73;;;11.90;99.90;;;;;;4842045;29;20709;-78
2023/10/19 10:33:48;;;;;;;14.57;8.80;;;12.00;99.90;;;;;;4840454;29;20346;-78
2023/10/19 10:36:19;;;;;;;14.80;8.70;;;12.00;99.90;;;;;;4824073;29;20206;-77
2023/10/19 10:39:04;;;;;;;15.00;8.83;;;12.10;99.90;;;;;;4841749;29;20634;-78
2023/10/19 10:41:35;;;;;;;17.73;8.80;;;12.30;99.90;;;;;;4841502;29;20281;-77
2023/10/19 10:44:06;;;;;;;17.30;8.87;;;12.40;99.90;;;;;;4842022;29;20594;-77
2023/10/19 10:46:34;;;;;;;20.43;9.50;;;12.70;99.90;;;;;;4842491;29;20202;-77
2023/10/19 10:49:09;;;;;;;17.73;9.00;;;12.40;99.90;;;;;;4841082;29;20305;-76
2023/10/19 10:51:40;;;;;;;13.60;8.60;;;12.10;99.90;;;;;;4825037;29;20202;-78
2023/10/19 11:14:25;;;;;;;13.17;8.30;;;12.00;99.90;;;;;;5700303;23;20241;-83
2023/10/19 11:17:53;;;;;;;15.67;8.23;;;12.00;99.90;;;;;;4828621;29;20238;-82
2023/10/19 11:20:59;;;;;;;14.57;8.20;;;12.20;99.90;;;;;;4810003;29;20215;-82
2023/10/19 11:25:00;;;;;;;14.87;8.00;;;12.30;99.90;;;;;;4742461;29;20226;-84
2023/10/19 11:28:18;;;;;;;12.20;7.70;;;12.00;99.90;;;;;;4783596;29;20256;-80
2023/10/19 11:31:08;;;;;;;16.30;8.57;;;11.90;99.90;;;;;;4787567;29;20199;-80
2023/10/19 11:33:46;;;;;;;11.67;7.33;;;11.80;99.90;;;;;;4802057;29;20704;-82
2023/10/19 11:36:33;;;;;;;14.80;7.57;;;11.90;99.90;;;;;;4786723;29;20689;-83
2023/10/19 11:40:22;;;;;;;;;;;;;;;;;;;;;
2023/10/19 11:44:22;;;;;;;15.50;8.17;;;11.70;99.90;;;;;;4690795;30;20699;-84
2023/10/19 11:48:44;;;;;;;;;;;;;;;;;;;;;
2023/10/19 11:56:34;;;;;;;23.43;9.80;;;11.20;99.90;;;;;;4706569;30;20631;-83
2023/10/19 12:00:48;;;;;;;16.33;8.97;;;11.50;99.90;;;;;;4690352;30;20659;-82
2023/10/19 12:18:51;;;;;;;18.93;8.87;;;11.30;99.90;;;;;;5016683;28;20525;-82
2023/10/19 12:24:51;;;;;;;15.67;9.37;;;11.00;99.90;;;;;;5072614;23;20397;-82
2023/10/19 13:03:11;;;;;;;17.37;9.93;;;10.90;99.90;;;;;;4886979;29;20574;-83
2023/10/19 13:05:46;;;;;;;17.57;9.53;;;10.70;99.90;;;;;;4839102;29;20586;-83
2023/10/19 13:08:20;;;;;;;17.53;9.57;;;10.70;99.90;;;;;;4870748;29;20307;-83
2023/10/19 13:11:14;;;;;;;18.13;10.20;;;10.50;99.90;;;;;;4850797;29;20217;-83
2023/10/19 13:22:56;;;;;;;;;;;;;;;;;;;;;
2023/10/19 13:30:43;;;;;;;15.57;9.67;;;10.90;99.90;;;;;;5533615;23;20233;-85
2023/10/19 13:36:44;;;;;;;20.33;10.33;;;10.60;99.90;;;;;;5110243;23;20599;-82
2023/10/19 13:39:39;;;;;;;;;;;;;;;;;;;;;
2023/10/19 13:47:04;;;;;;;19.60;9.63;;;10.60;99.90;;;;;;4819310;29;20235;-82
2023/10/19 13:57:45;;;;;;;;;;;;;;;;;;;;;
2023/10/19 14:02:10;;;;;;;17.27;9.20;;;10.80;99.90;;;;;;4887852;29;20282;-85
2023/10/19 14:09:58;;;;;;;18.27;9.50;;;10.70;99.90;;;;;;4875924;29;20615;-81
2023/10/19 14:31:33;;;;;;;18.23;8.93;;;10.70;99.90;;;;;;5949776;22;7285534;-84
2023/10/19 14:48:39;;;;;;;17.97;9.43;;;10.60;99.90;;;;;;6211415;22;20688;-81
2023/10/19 14:51:09;;;;;;;15.00;9.37;;;10.50;99.90;;;;;;6221550;23;20166;-80
2023/10/19 14:53:37;;;;;;;13.90;8.90;;;10.50;99.90;;;;;;6220924;23;20174;-80
2023/10/19 14:56:17;;;;;;;15.53;8.73;;;10.50;99.90;;;;;;6219685;23;20473;-81
2023/10/19 14:58:46;;;;;;;15.33;8.50;;;10.60;99.90;;;;;;6220503;23;20194;-80
2023/10/19 15:01:25;;;;;;;14.03;8.73;;;10.40;99.90;;;;;;6222139;23;20151;-81
2023/10/19 15:04:01;;;;;;;16.50;8.73;;;10.40;99.90;;;;;;6221509;23;20560;-81
2023/10/19 15:06:31;;;;;;;16.07;8.60;;;10.40;99.90;;;;;;6195620;23;20174;-82
2023/10/19 15:09:16;;;;;;;15.27;8.40;;;10.40;99.90;;;;;;6222840;23;20628;-82
2023/10/19 15:11:51;;;;;;;15.30;8.57;;;10.10;99.90;;;;;;6220379;23;20162;-81
2023/10/19 15:14:39;;;;;;;15.17;8.40;;;10.50;99.90;;;;;;6197987;23;20486;-82
2023/10/19 15:17:12;;;;;;;12.93;8.27;;;10.30;99.90;;;;;;6220237;23;20182;-82
2023/10/19 15:20:01;;;;;;;16.67;8.33;;;10.30;99.90;;;;;;6222563;23;20241;-82
2023/10/19 15:22:34;;;;;;;15.53;8.57;;;10.30;99.90;;;;;;6219153;23;20261;-83
2023/10/19 15:25:07;;;;;;;15.40;8.50;;;10.30;99.90;;;;;;6220355;23;20630;-81
2023/10/19 15:27:38;;;;;;;13.97;8.23;;;10.30;99.90;;;;;;6220423;23;20167;-81
2023/10/19 15:30:15;;;;;;;17.03;7.90;;;10.30;99.90;;;;;;6217141;23;20312;-81
2023/10/19 15:32:44;;;;;;;16.37;8.63;;;10.30;99.90;;;;;;6212834;23;20199;-79
2023/10/19 15:35:20;;;;;;;15.00;7.90;;;10.20;99.90;;;;;;6215767;23;20167;-77
2023/10/19 15:37:56;;;;;;;15.70;8.23;;;10.20;99.90;;;;;;6214366;23;20226;-80
2023/10/19 15:40:28;;;;;;;14.70;8.23;;;10.20;99.90;;;;;;6214042;23;20282;-80
2023/10/19 15:43:00;;;;;;;14.57;8.40;;;10.20;99.90;;;;;;6212576;23;20163;-79
2023/10/19 15:45:39;;;;;;;17.57;8.57;;;10.20;99.90;;;;;;6213824;23;20169;-80
2023/10/19 15:48:21;;;;;;;15.30;8.30;;;10.10;99.90;;;;;;6214664;23;20300;-78
2023/10/19 15:50:55;;;;;;;16.67;8.80;;;10.20;99.90;;;;;;6215512;23;20485;-79
2023/10/19 15:53:24;;;;;;;16.70;8.27;;;10.20;99.90;;;;;;6213383;23;20178;-78
2023/10/19 15:55:52;;;;;;;17.70;9.00;;;10.20;99.90;;;;;;6213770;23;20191;-79
2023/10/19 15:58:22;;;;;;;15.10;8.83;;;10.10;99.90;;;;;;6214240;23;20233;-78
2023/10/19 16:00:53;;;;;;;14.50;8.50;;;10.20;99.90;;;;;;6213549;23;20202;-80
2023/10/19 16:03:21;;;;;;;13.97;8.40;;;10.00;99.90;;;;;;6215157;23;20214;-80
2023/10/19 16:05:51;;;;;;;14.60;8.23;;;10.00;99.90;;;;;;6213383;23;20166;-79
2023/10/19 16:08:26;;;;;;;15.83;8.80;;;10.00;99.90;;;;;;6238688;23;20214;-78
2023/10/19 16:11:03;;;;;;;14.17;8.20;;;10.00;99.90;;;;;;6213244;23;20522;-79
2023/10/19 16:13:31;;;;;;;12.83;7.77;;;10.00;99.90;;;;;;6214635;23;20218;-80
2023/10/19 16:16:08;;;;;;;18.87;9.20;;;9.90;99.90;;;;;;6213143;23;20266;-80
2023/10/19 16:18:37;;;;;;;18.03;8.73;;;9.90;99.90;;;;;;6213293;23;20204;-80
2023/10/19 16:21:08;;;;;;;17.80;8.50;;;9.90;99.90;;;;;;6214011;23;20178;-80
2023/10/19 16:23:43;;;;;;;18.33;9.13;;;9.90;99.90;;;;;;6213249;23;20250;-81
2023/10/19 16:26:12;;;;;;;14.97;8.33;;;9.80;99.90;;;;;;6187978;23;20509;-80
2023/10/19 16:28:42;;;;;;;18.17;9.13;;;9.70;99.90;;;;;;6214256;23;20195;-80
2023/10/19 16:31:12;;;;;;;16.67;9.53;;;9.90;99.90;;;;;;6213792;23;20159;-81
2023/10/19 16:33:43;;;;;;;17.07;9.13;;;9.60;99.90;;;;;;6210947;23;20202;-81
2023/10/19 16:36:24;;;;;;;16.63;9.27;;;9.60;99.90;;;;;;6214663;23;20170;-80
2023/10/19 16:38:58;;;;;;;18.17;9.50;;;9.50;99.90;;;;;;6214571;23;20186;-79
2023/10/19 16:41:31;;;;;;;16.43;9.57;;;9.50;99.90;;;;;;6213657;23;20197;-80
2023/10/19 16:44:04;;;;;;;20.23;10.47;;;9.50;99.90;;;;;;6211912;23;20174;-81